Nearby METAR Reports

 

KOFF - Offutt Afb/Belle, Nebraska, USA
Distance from station: SE 6mi, 10km
Updated: 06/19/2018 9:56am
Overcast
Overcast
 Wind from SE
Wind: SE 8 mph , 13 km/h
Temperature: 72°F , 22°C
Dew Point: 70°F , 21°C
Humidity: 94%
Barometer: 29.96 inHg , 1014.6 hPa
Clouds: Overcast
Visibility: 10 miles , 16 km
Cloud details: Overcast 3900 ft
2018/06/19 14:56 KOFF 191456Z AUTO 14007KT 10SM OVC039 22/21 A2996 RMK AO2 LTG DSNT SE TSE16 SLP143 60013 T02230214 53012 $
KMLE - Omaha/Millard, Nebraska, USA
Distance from station: W 7mi, 11km
Updated: 06/19/2018 10:35am
Overcast
Overcast
 Wind from SE
Wind: SE 3 mph , 6 km/h
Temperature: 75°F , 24°C
Dew Point: 73°F , 23°C
Humidity: 94%
Barometer: 29.94 inHg , 1013.9 hPa
Clouds: Overcast
Visibility: 10 miles , 16 km
Cloud details: Overcast 2900 ft
2018/06/19 15:35 KMLE 191535Z AUTO 14003KT 10SM OVC029 24/23 A2994 RMK AO2 LTG DSNT SE AND S T02390226
 
KOMA - Omaha/Eppley, Nebraska, USA
Distance from station: NNE 10mi, 15km
Updated: 06/19/2018 9:52am
Overcast
Overcast
 Wind from S
Wind: S 12 mph , 19 km/h
Temperature: 73°F , 23°C
Dew Point: 72°F , 22°C
Humidity: 94%
Barometer: 29.95 inHg , 1014.2 hPa
Clouds: Overcast
Visibility: 10 miles , 16 km
Cloud details: Few Clouds 500 ft
Overcast 1500 ft
2018/06/19 14:52 KOMA 191452Z 18010KT 10SM FEW005 OVC015 23/22 A2995 RMK AO2 RAE18 SLP134 P0000 60101 T02330217 53004
KCBF - Council Bluffs, Iowa, USA
Distance from station: ENE 12mi, 20km
Updated: 06/19/2018 10:35am
Mostly cloudy
Mostly cloudy
 Wind from S
Wind: S 8 mph , 13 km/h, Gust: 15 mph , 24 km/h
Temperature: 72°F , 22°C
Dew Point: 72°F , 22°C
Humidity: 100%
Barometer: 29.95 inHg , 1014.2 hPa
Clouds: Mostly cloudy
Visibility: 10 miles , 16 km
Cloud details: Few Clouds 500 ft
Mostly cloudy 3000 ft
2018/06/19 15:35 KCBF 191535Z AUTO 17007G13KT 10SM FEW005 BKN030 22/22 A2995 RMK AO2
 
KBTA - Blair Muni, Nebraska, USA
Distance from station: NNW 17mi, 27km
Updated: 06/19/2018 10:35am
Overcast
Overcast
 Wind from SSE
Wind: SSE 7 mph , 11 km/h
Temperature: 73°F , 23°C
Dew Point: 72°F , 22°C
Humidity: 94%
Barometer: 29.95 inHg , 1014.2 hPa
Clouds: Overcast
Visibility: 10 miles , 16 km
Cloud details: Overcast 1100 ft
2018/06/19 15:35 KBTA 191535Z AUTO 16006KT 10SM OVC011 23/22 A2995 RMK AO2 LTG DSNT SE AND S T02300219
KPMV - Plattsmouth Muni, Nebraska, USA
Distance from station: SSE 17mi, 28km
Updated: 06/19/2018 10:35am
Partly cloudy
Partly cloudy
 Wind from SE
Wind: SE 6 mph , 9 km/h
Temperature: 72°F , 22°C
Dew Point: 72°F , 22°C
Humidity: 100%
Barometer: 29.94 inHg , 1013.9 hPa
Clouds: Partly cloudy
Visibility: 10 miles , 16 km
Cloud details: Partly cloudy 2800 ft
2018/06/19 15:35 KPMV 191535Z AUTO 13005KT 10SM SCT028 22/22 A2994 RMK AO2 LTG DSNT E AND S T02220215
 
KAHQ - Wahoo, Nebraska, USA
Distance from station: W 32mi, 52km
Updated: 06/19/2018 10:35am
Overcast
Overcast
 Wind from calm
Wind: Calm
Temperature: 73°F , 23°C
Dew Point: 72°F , 22°C
Humidity: 94%
Barometer: 29.95 inHg , 1014.2 hPa
Clouds: Overcast
Visibility: 10 miles , 16 km
Cloud details: Overcast 1100 ft
2018/06/19 15:35 KAHQ 191535Z AUTO 00000KT 10SM OVC011 23/22 A2995 RMK AO2 T02280218
KFET - Fremont Muni Arp, Nebraska, USA
Distance from station: WNW 33mi, 53km
Updated: 06/19/2018 10:35am
Overcast
Overcast
 Wind from ESE
Wind: ESE 3 mph , 6 km/h
Temperature: 75°F , 24°C
Dew Point: 72°F , 22°C
Humidity: 89%
Barometer: 29.96 inHg , 1014.6 hPa
Clouds: Overcast
Visibility: 7 miles , 11 km
Cloud details: Overcast 1000 ft
2018/06/19 15:35 KFET 191535Z AUTO 12003KT 7SM OVC010 24/22 A2996 RMK AO2 LTG DSNT S T02400223
 
KRDK - Red Oak, Iowa, USA
Distance from station: ESE 39mi, 63km
Updated: 06/19/2018 10:35am
Partly cloudy
Partly cloudy
 Wind from ESE
Wind: ESE 9 mph , 15 km/h
Temperature: 70°F , 21°C
Dew Point: 70°F , 21°C
Humidity: 100%
Barometer: 29.95 inHg , 1014.2 hPa
Clouds: Partly cloudy
Visibility: 10 miles , 16 km
Cloud details: Few Clouds 3900 ft
Partly cloudy 5000 ft
Partly cloudy 7000 ft
2018/06/19 15:35 KRDK 191535Z AUTO 12008KT 10SM FEW039 SCT050 SCT070 21/21 A2995 RMK AO2
KTQE - Tekamah, Nebraska, USA
Distance from station: NNW 41mi, 66km
Updated: 06/19/2018 10:47am
Overcast
Overcast
 Wind from calm
Wind: Calm
Temperature: 73°F , 23°C
Dew Point: 70°F , 21°C
Humidity: 89%
Barometer: 29.93 inHg , 1013.5 hPa
Clouds: Overcast
Visibility: 10 miles , 16 km
Cloud details: Mostly cloudy 900 ft
Overcast 4100 ft
2018/06/19 15:47 KTQE 191547Z AUTO 00000KT 10SM BKN009 OVC041 23/21 A2993 RMK AO2 T02330211
 
KAFK - Nebraska City, Nebraska, USA
Distance from station: S 42mi, 67km
Updated: 06/19/2018 10:35am
Mostly cloudy
Mostly cloudy
 Wind from SE
Wind: SE 8 mph , 13 km/h
Temperature: 73°F , 23°C
Dew Point: 73°F , 23°C
Humidity: 100%
Barometer: 29.94 inHg , 1013.9 hPa
Clouds: Mostly cloudy
Visibility: 10 miles , 16 km
Cloud details: Partly cloudy 300 ft
Partly cloudy 2700 ft
Mostly cloudy 12000 ft
2018/06/19 15:35 KAFK 191535Z AUTO 14007KT 10SM SCT003 SCT027 BKN120 23/23 A2994 RMK AO2 LTG DSNT E AND S T02290229
KHNR - Harlan Muni, Iowa, USA
Distance from station: NE 43mi, 69km
Updated: 06/18/2018 7:15pm
NOT Current
Heavy rain, Overcast
Heavy rain, Overcast
 Wind from WNW
Wind: WNW 33 mph , 54 km/h, Gust: 45 mph , 72 km/h
Temperature: 70°F , 21°C
Dew Point: 68°F , 20°C
Humidity: 94%
Barometer: 30.01 inHg , 1016.3 hPa
Summary: Heavy rain
Clouds: Overcast
Visibility: 3/4 mile , 1.2 km
Cloud details: Mostly cloudy 300 ft
Overcast 2400 ft
2018/06/19 00:15 KHNR 190015Z AUTO 29029G39KT 3/4SM +RA BKN003 OVC024 21/20 A3001 RMK AO2
 
KSDA - Shenandoah Muni, Iowa, USA
Distance from station: SE 43mi, 69km
Updated: 06/19/2018 10:35am
Mostly cloudy
Mostly cloudy
 Wind from NNE
Wind: NNE 6 mph , 9 km/h
Temperature: 72°F , 22°C
Dew Point: 70°F , 21°C
Humidity: 94%
Barometer: 29.95 inHg , 1014.2 hPa
Clouds: Mostly cloudy
Visibility: 10 miles , 16 km
Cloud details: Partly cloudy 3400 ft
Mostly cloudy 4400 ft
Mostly cloudy 6500 ft
2018/06/19 15:35 KSDA 191535Z AUTO 03005KT 10SM SCT034 BKN044 BKN065 22/21 A2995 RMK AO2
KLNK - Lincoln, Nebraska, USA
Distance from station: WSW 47mi, 76km
Updated: 06/19/2018 9:54am
Mostly cloudy
Mostly cloudy
 Wind from calm
Wind: Calm
Temperature: 75°F , 24°C
Dew Point: 70°F , 21°C
Humidity: 83%
Barometer: 29.95 inHg , 1014.2 hPa
Clouds: Mostly cloudy
Visibility: 10 miles , 16 km
Cloud details: Mostly cloudy 3600 ft
2018/06/19 14:54 KLNK 191454Z 00000KT 10SM BKN036 24/21 A2995 RMK AO2 SLP130 60000 T02440211 50016
 
KAIO - Atlantic, Iowa, USA
Distance from station: ENE 51mi, 82km
Updated: 06/19/2018 10:35am
Clear
Clear
 Wind from calm
Wind: Calm
Temperature: 72°F , 22°C
Dew Point: 70°F , 21°C
Humidity: 94%
Barometer: 29.97 inHg , 1014.9 hPa
Clouds: Clear
Visibility: 10 miles , 16 km
2018/06/19 15:35 KAIO 191535Z AUTO 00000KT 10SM CLR 22/21 A2997 RMK AO2
KICL - Clarinda, Iowa, USA
Distance from station: ESE 60mi, 97km
Updated: 06/19/2018 10:35am
Light rain, Overcast
Light rain, Overcast
 Wind from ENE
Wind: ENE 12 mph , 19 km/h
Temperature: 70°F , 21°C
Dew Point: 70°F , 21°C
Humidity: 100%
Barometer: 29.95 inHg , 1014.2 hPa
Summary: Light rain
Clouds: Overcast
Visibility: 1 1/2 miles , 2.4 km
Cloud details: Mostly cloudy 400 ft
Mostly cloudy 3300 ft
Overcast 3900 ft
2018/06/19 15:35 KICL 191535Z AUTO 07010KT 1 1/2SM -RA BKN004 BKN033 OVC039 21/21 A2995 RMK AO2
 
KDNS - Denison, Iowa, USA
Distance from station: NNE 62mi, 100km
Updated: 06/19/2018 10:35am
Mostly cloudy
Mostly cloudy
 Wind from S
Wind: S 9 mph , 15 km/h
Temperature: 70°F , 21°C
Dew Point: 70°F , 21°C
Humidity: 100%
Barometer: 29.97 inHg , 1014.9 hPa
Clouds: Mostly cloudy
Visibility: 10 miles , 16 km
Cloud details: Partly cloudy 600 ft
Mostly cloudy 1200 ft
2018/06/19 15:35 KDNS 191535Z AUTO 17008KT 10SM SCT006 BKN012 21/21 A2997 RMK AO2
KADU - Audubon, Iowa, USA
Distance from station: ENE 65mi, 105km
Updated: 06/19/2018 10:35am
Light rain, Overcast
Light rain, Overcast
 Wind from SSW
Wind: SSW 10 mph , 17 km/h, Gust: 28 mph , 44 km/h
Temperature: 70°F , 21°C
Dew Point: 66°F , 19°C
Humidity: 88%
Barometer: 29.98 inHg , 1015.2 hPa
Summary: Light rain
Clouds: Overcast
Visibility: 10 miles , 16 km
Cloud details: Partly cloudy 1300 ft
Mostly cloudy 2700 ft
Overcast 4100 ft
2018/06/19 15:35 KADU 191535Z AUTO 21009G24KT 10SM -RA SCT013 BKN027 OVC041 21/19 A2998 RMK AO2 P0006
 
KOLU - Columbus Muni, Nebraska, USA
Distance from station: WNW 71mi, 115km
Updated: 06/19/2018 10:39am
Overcast
Overcast
 Wind from NNE
Wind: NNE 13 mph , 20 km/h
Temperature: 75°F , 24°C
Dew Point: 70°F , 21°C
Humidity: 83%
Barometer: 29.96 inHg , 1014.6 hPa
Clouds: Overcast
Visibility: 10 miles , 16 km
Cloud details: Partly cloudy 1600 ft
Overcast 2100 ft
2018/06/19 15:39 KOLU 191539Z AUTO 02011KT 10SM SCT016 OVC021 24/21 A2996 RMK AO2
KBIE - Beatrice Municip, Nebraska, USA
Distance from station: SSW 75mi, 120km
Updated: 06/19/2018 10:35am
Partly cloudy
Partly cloudy
 Wind from SE
Wind: SE 7 mph , 11 km/h
Temperature: 79°F , 26°C
Dew Point: 68°F , 20°C
Humidity: 70%
Barometer: 29.93 inHg , 1013.5 hPa
Clouds: Partly cloudy
Visibility: 10 miles , 16 km
Cloud details: Partly cloudy 11000 ft
2018/06/19 15:35 KBIE 191535Z AUTO 13006KT 10SM SCT110 26/20 A2993 RMK AO2 LTG DSNT SE AND S T02550195